createdAt,value
2023-05-10T00:00:53.230Z,14.10
2023-05-10T00:03:23.448Z,14.16
2023-05-10T00:05:53.472Z,14.17
2023-05-10T00:08:23.802Z,14.08
2023-05-10T00:10:53.933Z,14.17
2023-05-10T00:13:24.120Z,14.16
2023-05-10T00:15:56.718Z,14.20
2023-05-10T00:18:26.955Z,14.32
2023-05-10T00:20:56.879Z,14.16
2023-05-10T00:23:26.845Z,14.07
2023-05-10T00:25:56.818Z,13.98
2023-05-10T00:28:27.142Z,14.06
2023-05-10T00:31:00.031Z,14.04
2023-05-10T00:33:29.969Z,14.08
2023-05-10T00:36:00.026Z,14.08
2023-05-10T00:38:29.952Z,14.03
2023-05-10T00:41:00.269Z,14.07
2023-05-10T00:43:33.860Z,14.13
2023-05-10T00:46:07.064Z,14.01
2023-05-10T00:48:38.300Z,14.03
2023-05-10T00:51:08.397Z,13.99
2023-05-10T00:53:39.187Z,13.91
2023-05-10T00:56:09.382Z,14.14
2023-05-10T00:58:39.434Z,13.97
2023-05-10T01:01:13.218Z,13.98
2023-05-10T01:03:43.989Z,14.02
2023-05-10T01:06:14.318Z,14.06
2023-05-10T01:08:44.823Z,14.04
2023-05-10T01:11:15.552Z,14.13
2023-05-10T01:13:51.564Z,14.01
2023-05-10T01:16:24.572Z,13.99
2023-05-10T01:18:55.927Z,13.93
2023-05-10T01:21:37.164Z,13.79
2023-05-10T01:24:54.681Z,13.85
2023-05-10T01:27:46.939Z,14.03
2023-05-10T01:30:49.434Z,13.90
2023-05-10T01:33:27.119Z,13.92
2023-05-10T01:36:07.775Z,13.86
2023-05-10T01:38:47.385Z,13.68
2023-05-10T01:41:22.645Z,13.65
2023-05-10T01:44:16.199Z,13.75
2023-05-10T01:46:46.339Z,13.71
2023-05-10T01:49:27.130Z,13.87
2023-05-10T01:52:03.142Z,13.77
2023-05-10T01:54:36.840Z,13.88
2023-05-10T01:57:11.166Z,13.88
2023-05-10T01:59:44.979Z,14.01
2023-05-10T02:02:18.645Z,14.07
2023-05-10T02:04:53.253Z,14.01
2023-05-10T02:07:25.741Z,14.02
2023-05-10T02:09:56.325Z,14.06
2023-05-10T02:12:28.881Z,14.10
2023-05-10T02:15:00.506Z,13.92
2023-05-10T02:17:33.999Z,13.98
2023-05-10T02:20:08.884Z,13.89
2023-05-10T02:22:40.620Z,13.94
2023-05-10T02:25:16.748Z,13.94
2023-05-10T02:27:50.469Z,14.04
2023-05-10T02:30:22.603Z,14.05
2023-05-10T02:32:55.961Z,13.93
2023-05-10T02:35:32.148Z,13.83
2023-05-10T02:38:03.831Z,13.88
2023-05-10T02:40:34.971Z,13.76
2023-05-10T02:43:08.011Z,13.82
2023-05-10T02:45:41.413Z,13.84
2023-05-10T02:48:13.536Z,13.84
2023-05-10T02:50:52.555Z,13.83
2023-05-10T02:53:27.336Z,13.79
2023-05-10T02:56:04.972Z,13.72
2023-05-10T02:58:34.886Z,13.69
2023-05-10T03:01:04.987Z,13.62
2023-05-10T03:03:34.962Z,13.69
2023-05-10T03:06:08.072Z,13.65
2023-05-10T03:08:38.165Z,13.58
2023-05-10T03:11:32.683Z,13.60
2023-05-10T03:14:17.003Z,13.51
2023-05-10T03:16:51.000Z,13.46
2023-05-10T03:19:30.154Z,13.43
2023-05-10T03:22:07.913Z,13.44
2023-05-10T03:24:43.194Z,13.34
2023-05-10T03:27:15.550Z,13.42
2023-05-10T03:29:48.367Z,13.43
2023-05-10T03:32:18.744Z,13.37
2023-05-10T03:34:48.826Z,13.49
2023-05-10T03:37:21.419Z,13.39
2023-05-10T03:39:51.360Z,13.39
2023-05-10T03:42:21.791Z,13.43
2023-05-10T03:44:52.088Z,13.53
2023-05-10T03:47:22.080Z,13.49
2023-05-10T03:49:52.035Z,13.46
2023-05-10T03:52:24.985Z,13.42
2023-05-10T03:54:54.913Z,13.50
2023-05-10T03:57:24.928Z,13.55
2023-05-10T03:59:54.949Z,13.60
2023-05-10T04:02:25.038Z,13.52
2023-05-10T04:04:55.336Z,13.52
2023-05-10T04:07:27.953Z,13.67
2023-05-10T04:09:57.983Z,13.46
2023-05-10T04:12:28.015Z,13.47
2023-05-10T04:14:58.472Z,13.57
2023-05-10T04:17:28.487Z,13.73
2023-05-10T04:19:59.652Z,13.60
2023-05-10T04:22:32.245Z,13.66
2023-05-10T04:25:02.184Z,13.59
2023-05-10T04:27:32.188Z,13.66
2023-05-10T04:30:02.260Z,13.77
2023-05-10T04:32:32.625Z,13.72
2023-05-10T04:35:04.686Z,13.66
2023-05-10T04:37:37.710Z,13.83
2023-05-10T04:40:09.267Z,13.82
2023-05-10T04:42:39.223Z,13.79
2023-05-10T04:45:10.794Z,13.83
2023-05-10T04:47:40.838Z,13.87
2023-05-10T04:50:12.052Z,13.76
2023-05-10T04:52:44.564Z,13.81
2023-05-10T04:55:14.796Z,13.77
2023-05-10T04:57:44.706Z,13.94
2023-05-10T05:00:15.900Z,14.00
2023-05-10T05:02:47.107Z,13.95
2023-05-10T05:05:17.323Z,13.84
2023-05-10T05:07:49.886Z,14.03
2023-05-10T05:10:20.250Z,14.01
2023-05-10T05:12:50.350Z,13.85
2023-05-10T05:15:20.769Z,14.03
2023-05-10T05:17:51.218Z,13.97
2023-05-10T05:20:21.313Z,13.95
2023-05-10T05:22:53.834Z,13.97
2023-05-10T05:25:24.002Z,14.00
2023-05-10T05:27:53.899Z,14.20
2023-05-10T05:30:23.817Z,14.28
2023-05-10T05:32:53.842Z,14.28
2023-05-10T05:35:23.981Z,14.40
2023-05-10T05:37:57.012Z,14.55
2023-05-10T05:40:27.128Z,14.46
2023-05-10T05:42:57.045Z,14.58
2023-05-10T05:45:26.994Z,14.62
2023-05-10T05:47:57.401Z,14.93
2023-05-10T05:50:27.355Z,14.96
2023-05-10T05:52:59.857Z,15.05
2023-05-10T05:55:30.787Z,15.02
2023-05-10T05:58:00.802Z,15.02
2023-05-10T06:00:30.943Z,15.06
2023-05-10T06:03:01.012Z,14.67
2023-05-10T06:05:31.152Z,14.71
2023-05-10T06:08:04.100Z,14.73
2023-05-10T06:10:34.312Z,14.73
2023-05-10T06:13:07.199Z,14.87
2023-05-10T06:15:37.156Z,14.78
2023-05-10T06:18:07.428Z,14.66
2023-05-10T06:20:37.485Z,14.70
2023-05-10T06:23:10.024Z,14.77
2023-05-10T06:25:40.041Z,14.95
2023-05-10T06:28:09.995Z,15.02
2023-05-10T06:30:40.170Z,14.91
2023-05-10T06:33:10.181Z,14.99
2023-05-10T06:35:40.210Z,15.26
2023-05-10T06:38:12.818Z,15.06
2023-05-10T06:40:45.322Z,14.84
2023-05-10T06:43:15.265Z,14.91
2023-05-10T06:45:45.313Z,14.87
2023-05-10T06:48:15.278Z,15.15
2023-05-10T06:50:45.827Z,15.30
2023-05-10T06:53:18.484Z,15.10
2023-05-10T06:55:48.478Z,15.30
2023-05-10T06:58:18.356Z,15.22
2023-05-10T07:00:48.449Z,15.07
2023-05-10T07:03:18.590Z,15.45
2023-05-10T07:05:48.610Z,15.19
2023-05-10T07:08:21.145Z,15.01
2023-05-10T07:10:51.079Z,15.03
2023-05-10T07:13:21.183Z,15.12
2023-05-10T07:15:51.279Z,15.22
2023-05-10T07:18:21.325Z,15.26
2023-05-10T07:20:51.471Z,15.27
2023-05-10T07:23:23.989Z,15.03
2023-05-10T07:25:55.356Z,15.09
2023-05-10T07:28:25.912Z,15.19
2023-05-10T07:30:55.881Z,15.11
2023-05-10T07:33:25.909Z,15.36
2023-05-10T07:35:55.928Z,15.32
2023-05-10T07:38:28.469Z,15.35
2023-05-10T07:40:58.425Z,15.30
2023-05-10T07:43:28.426Z,15.31
2023-05-10T07:45:58.682Z,15.39
2023-05-10T07:48:28.696Z,15.64
2023-05-10T07:50:58.703Z,15.44
2023-05-10T07:53:31.996Z,15.84
2023-05-10T07:56:02.615Z,15.77
2023-05-10T07:58:32.506Z,15.52
2023-05-10T08:01:02.424Z,15.61
2023-05-10T08:03:32.543Z,15.89
2023-05-10T08:06:02.574Z,15.97
2023-05-10T08:08:35.166Z,16.08
2023-05-10T08:11:05.116Z,15.81
2023-05-10T08:13:35.270Z,15.71
2023-05-10T08:16:05.232Z,15.77
2023-05-10T08:18:35.370Z,16.12
2023-05-10T08:21:05.304Z,16.50
2023-05-10T08:23:37.943Z,16.79
2023-05-10T08:26:07.950Z,16.61
2023-05-10T08:28:37.887Z,16.85
2023-05-10T08:31:08.421Z,16.86
2023-05-10T08:33:38.408Z,16.68
2023-05-10T08:36:08.526Z,16.24
2023-05-10T08:38:41.727Z,16.46
2023-05-10T08:41:12.010Z,16.02
2023-05-10T08:43:47.442Z,16.18
2023-05-10T08:46:21.230Z,15.98
2023-05-10T08:48:53.570Z,16.16
2023-05-10T08:51:27.996Z,16.26
2023-05-10T08:54:00.909Z,16.64
2023-05-10T08:56:31.191Z,16.51
2023-05-10T08:59:01.641Z,16.36
2023-05-10T09:01:31.981Z,16.26
2023-05-10T09:04:02.836Z,16.49
2023-05-10T09:06:33.447Z,16.53
2023-05-10T09:09:06.288Z,16.15
2023-05-10T09:11:36.649Z,16.00
2023-05-10T09:14:06.638Z,15.93
2023-05-10T09:16:36.645Z,16.22
2023-05-10T09:19:08.415Z,16.16
2023-05-10T09:21:40.661Z,16.01
2023-05-10T09:24:13.473Z,16.09
2023-05-10T09:26:51.406Z,15.87
2023-05-10T09:29:21.397Z,15.87
2023-05-10T09:31:55.927Z,15.86
2023-05-10T09:34:33.806Z,16.05
2023-05-10T09:37:05.600Z,16.24
2023-05-10T09:39:40.537Z,16.04
2023-05-10T09:42:12.266Z,16.11
2023-05-10T09:44:44.500Z,16.23
2023-05-10T09:47:15.190Z,16.05
2023-05-10T09:49:45.693Z,16.01
2023-05-10T09:52:15.691Z,16.41
2023-05-10T09:54:56.708Z,16.56
2023-05-10T09:57:28.400Z,17.06
2023-05-10T09:59:59.509Z,17.08
2023-05-10T10:02:32.925Z,17.59
2023-05-10T10:05:05.318Z,17.36
2023-05-10T10:07:36.734Z,17.82
2023-05-10T10:10:12.683Z,17.96
2023-05-10T10:12:45.647Z,17.55
2023-05-10T10:15:16.849Z,17.68
2023-05-10T10:17:47.752Z,17.14
2023-05-10T10:20:18.798Z,17.34
2023-05-10T10:22:49.044Z,17.00
2023-05-10T10:25:23.952Z,16.81
2023-05-10T10:28:13.083Z,16.78
2023-05-10T10:30:47.108Z,17.64
2023-05-10T10:33:45.671Z,17.16
2023-05-10T10:36:17.335Z,17.98
2023-05-10T10:39:04.330Z,17.63
2023-05-10T10:41:41.999Z,17.96
2023-05-10T10:44:43.049Z,18.38
2023-05-10T10:47:31.133Z,17.66
2023-05-10T10:50:10.568Z,17.76
2023-05-10T10:52:42.444Z,17.53
2023-05-10T10:55:14.181Z,17.79
2023-05-10T10:57:52.836Z,17.96
2023-05-10T11:00:29.355Z,18.02
2023-05-10T11:03:02.596Z,17.69
2023-05-10T11:05:44.408Z,17.77
2023-05-10T11:08:20.047Z,18.14
2023-05-10T11:11:08.047Z,18.91
2023-05-10T11:13:44.728Z,18.81
2023-05-10T11:16:19.916Z,18.33
2023-05-10T11:18:58.458Z,18.13
2023-05-10T11:21:28.751Z,18.23
2023-05-10T11:24:00.609Z,17.79
2023-05-10T11:26:36.311Z,17.23
2023-05-10T11:29:08.937Z,17.06
2023-05-10T11:31:45.772Z,17.46
2023-05-10T11:34:17.970Z,17.42
2023-05-10T11:36:54.972Z,17.06
2023-05-10T11:39:29.382Z,17.32
2023-05-10T11:41:59.805Z,17.53
2023-05-10T11:44:36.285Z,17.28
2023-05-10T11:47:06.667Z,17.02
2023-05-10T11:49:36.729Z,16.81
2023-05-10T11:52:12.181Z,17.46
2023-05-10T11:54:48.440Z,17.48
2023-05-10T11:57:18.348Z,17.50
2023-05-10T11:59:51.544Z,17.64
2023-05-10T12:02:21.912Z,18.06
2023-05-10T12:04:52.562Z,18.12
2023-05-10T12:07:22.730Z,18.48
2023-05-10T12:10:07.405Z,18.60
2023-05-10T12:12:45.767Z,19.14
2023-05-10T12:15:22.674Z,18.73
2023-05-10T12:17:54.382Z,18.73
2023-05-10T12:20:26.780Z,18.71
2023-05-10T12:23:00.644Z,18.68
2023-05-10T12:25:35.114Z,18.69
2023-05-10T12:28:09.412Z,18.23
2023-05-10T12:30:43.241Z,18.15
2023-05-10T12:33:16.198Z,18.40
2023-05-10T12:35:51.278Z,19.03
2023-05-10T12:38:30.929Z,19.47
2023-05-10T12:41:02.009Z,19.53
2023-05-10T12:43:32.203Z,19.76
2023-05-10T12:46:09.226Z,20.15
2023-05-10T12:48:39.764Z,20.08
2023-05-10T12:51:12.922Z,20.05
2023-05-10T12:53:46.085Z,20.50
2023-05-10T12:56:17.370Z,20.30
2023-05-10T12:58:49.280Z,20.71
2023-05-10T13:01:21.940Z,20.43
2023-05-10T13:03:51.958Z,20.67
2023-05-10T13:06:21.885Z,20.23
2023-05-10T13:08:53.085Z,20.01
2023-05-10T13:11:23.179Z,19.82
2023-05-10T13:13:53.180Z,20.05
2023-05-10T13:16:25.839Z,20.02
2023-05-10T13:18:55.862Z,19.66
2023-05-10T13:21:26.239Z,20.65
2023-05-10T13:23:57.138Z,20.57
2023-05-10T13:26:27.400Z,20.32
2023-05-10T13:28:57.465Z,20.07
2023-05-10T13:31:30.141Z,20.06
2023-05-10T13:34:00.231Z,20.46
2023-05-10T13:36:30.557Z,19.78
2023-05-10T13:39:02.425Z,18.71
2023-05-10T13:41:32.384Z,19.23
2023-05-10T13:44:02.419Z,18.88
2023-05-10T13:46:35.558Z,19.51
2023-05-10T13:49:05.866Z,20.04
2023-05-10T13:51:36.132Z,19.67
2023-05-10T13:54:06.243Z,19.19
2023-05-10T13:56:36.327Z,18.64
2023-05-10T13:59:06.326Z,18.34
2023-05-10T14:01:39.383Z,18.17
2023-05-10T14:04:11.523Z,18.38
2023-05-10T14:06:41.682Z,18.34
2023-05-10T14:09:11.744Z,18.25
2023-05-10T14:11:44.284Z,18.03
2023-05-10T14:14:14.575Z,17.93
2023-05-10T14:16:49.246Z,17.89
2023-05-10T14:19:19.260Z,17.87
2023-05-10T14:21:49.292Z,17.93
2023-05-10T14:24:19.282Z,18.61
2023-05-10T14:26:49.255Z,19.16
2023-05-10T14:29:19.453Z,19.66
2023-05-10T14:31:52.048Z,22.02
2023-05-10T14:34:22.245Z,25.51
2023-05-10T14:36:52.283Z,27.25
2023-05-10T14:39:22.452Z,26.36
2023-05-10T14:41:52.585Z,26.84
2023-05-10T14:44:22.558Z,24.91
2023-05-10T14:46:55.072Z,23.27
2023-05-10T14:49:27.190Z,26.91
2023-05-10T14:51:57.346Z,23.98
2023-05-10T14:54:27.426Z,22.97
2023-05-10T14:56:57.331Z,25.37
2023-05-10T14:59:27.509Z,25.36
2023-05-10T15:02:00.226Z,24.75
2023-05-10T15:04:31.202Z,23.93
2023-05-10T15:07:01.807Z,22.85
2023-05-10T15:09:31.811Z,21.40
2023-05-10T15:12:01.836Z,21.03
2023-05-10T15:14:32.557Z,20.32
2023-05-10T15:17:05.130Z,19.89
2023-05-10T15:19:35.049Z,19.63
2023-05-10T15:22:05.013Z,19.25
2023-05-10T15:24:35.552Z,19.63
2023-05-10T15:27:05.823Z,20.96
2023-05-10T15:29:36.966Z,22.79
2023-05-10T15:32:09.575Z,22.80
2023-05-10T15:34:39.713Z,23.21
2023-05-10T15:37:09.882Z,22.15
2023-05-10T15:39:39.945Z,21.09
2023-05-10T15:42:09.952Z,20.87
2023-05-10T15:44:40.071Z,21.40
2023-05-10T15:47:12.685Z,21.29
2023-05-10T15:49:42.572Z,21.55
2023-05-10T15:52:12.781Z,21.43
2023-05-10T15:54:43.110Z,20.79
2023-05-10T15:57:13.253Z,21.28
2023-05-10T15:59:43.213Z,21.51
2023-05-10T16:02:16.177Z,21.27
2023-05-10T16:04:46.928Z,21.86
2023-05-10T16:07:16.914Z,22.59
2023-05-10T16:09:46.838Z,20.90
2023-05-10T16:12:16.834Z,20.43
2023-05-10T16:14:46.866Z,20.21
2023-05-10T16:17:20.583Z,19.87
2023-05-10T16:19:50.716Z,19.68
2023-05-10T16:22:22.494Z,19.09
2023-05-10T16:24:54.736Z,18.95
2023-05-10T16:27:24.731Z,18.93
2023-05-10T16:29:54.668Z,18.84
2023-05-10T16:32:27.296Z,18.98
2023-05-10T16:34:57.233Z,19.51
2023-05-10T16:37:27.543Z,18.75
2023-05-10T16:39:57.515Z,19.48
2023-05-10T16:42:28.234Z,19.47
2023-05-10T16:44:58.244Z,19.05
2023-05-10T16:47:30.813Z,18.73
2023-05-10T16:50:01.252Z,19.04
2023-05-10T16:52:32.512Z,18.47
2023-05-10T16:55:03.208Z,18.69
2023-05-10T16:57:33.507Z,18.13
2023-05-10T17:00:04.483Z,17.91
2023-05-10T17:02:37.784Z,18.10
2023-05-10T17:05:08.735Z,18.33
2023-05-10T17:07:38.671Z,17.78
2023-05-10T17:10:10.054Z,17.73
2023-05-10T17:12:40.012Z,17.62
2023-05-10T17:15:11.846Z,17.43
2023-05-10T17:17:44.479Z,17.79
2023-05-10T17:20:14.997Z,17.52
2023-05-10T17:22:44.980Z,17.39
2023-05-10T17:25:15.575Z,17.13
2023-05-10T17:27:45.691Z,17.22
2023-05-10T17:30:17.157Z,17.26
2023-05-10T17:32:49.785Z,17.35
2023-05-10T17:35:19.896Z,17.12
2023-05-10T17:37:49.934Z,17.53
2023-05-10T17:40:20.121Z,16.95
2023-05-10T17:42:50.173Z,16.90
2023-05-10T17:45:20.351Z,16.95
2023-05-10T17:47:52.975Z,16.75
2023-05-10T17:50:23.101Z,16.77
2023-05-10T17:52:53.080Z,16.82
2023-05-10T17:55:23.166Z,16.56
2023-05-10T17:57:53.157Z,16.66
2023-05-10T18:00:23.648Z,16.63
2023-05-10T18:02:56.347Z,16.71
2023-05-10T18:05:26.471Z,16.64
2023-05-10T18:07:56.604Z,16.67
2023-05-10T18:10:27.563Z,16.86
2023-05-10T18:13:02.608Z,16.82
2023-05-10T18:15:33.127Z,16.49
2023-05-10T18:18:08.080Z,16.21
2023-05-10T18:20:38.276Z,16.23
2023-05-10T18:23:08.338Z,16.15
2023-05-10T18:25:38.376Z,16.24
2023-05-10T18:28:08.384Z,16.09
2023-05-10T18:30:38.594Z,15.95
2023-05-10T18:33:12.129Z,15.89
2023-05-10T18:35:42.753Z,16.11
2023-05-10T18:38:13.750Z,15.85
2023-05-10T18:40:44.868Z,15.77
2023-05-10T18:43:14.874Z,15.82
2023-05-10T18:45:44.801Z,15.76
2023-05-10T18:48:17.437Z,15.55
2023-05-10T18:50:47.456Z,15.37
2023-05-10T18:53:17.463Z,15.43
2023-05-10T18:55:47.412Z,15.29
2023-05-10T18:58:17.356Z,15.20
2023-05-10T19:00:47.339Z,15.24
2023-05-10T19:03:19.943Z,15.22
2023-05-10T19:05:50.934Z,15.28
2023-05-10T19:08:21.043Z,15.12
2023-05-10T19:10:51.117Z,15.33
2023-05-10T19:13:21.294Z,15.49
2023-05-10T19:16:04.875Z,15.21
2023-05-10T19:18:39.561Z,15.17
2023-05-10T19:21:11.008Z,15.03
2023-05-10T19:23:43.159Z,15.26
2023-05-10T19:26:14.214Z,15.29
2023-05-10T19:28:44.204Z,15.34
2023-05-10T19:31:14.523Z,15.33
2023-05-10T19:33:47.166Z,15.21
2023-05-10T19:36:17.220Z,15.04
2023-05-10T19:38:47.318Z,15.01
2023-05-10T19:41:18.708Z,14.81
2023-05-10T19:43:49.554Z,14.86
2023-05-10T19:46:20.346Z,14.83
2023-05-10T19:48:53.212Z,14.88
2023-05-10T19:51:23.335Z,14.96
2023-05-10T19:53:53.283Z,14.86
2023-05-10T19:56:23.432Z,14.64
2023-05-10T19:58:53.474Z,14.59
2023-05-10T20:01:23.629Z,14.67
2023-05-10T20:03:57.049Z,14.55
2023-05-10T20:06:27.605Z,14.42
2023-05-10T20:08:57.723Z,14.53
2023-05-10T20:11:30.514Z,14.50
2023-05-10T20:14:00.466Z,14.43
2023-05-10T20:16:30.531Z,14.46
2023-05-10T20:19:03.146Z,14.50
2023-05-10T20:21:33.684Z,14.42
2023-05-10T20:24:03.616Z,14.36
2023-05-10T20:26:34.171Z,14.33
2023-05-10T20:29:04.120Z,14.46
2023-05-10T20:31:34.307Z,14.26
2023-05-10T20:34:06.919Z,14.07
2023-05-10T20:36:36.893Z,14.14
2023-05-10T20:39:07.000Z,14.07
2023-05-10T20:41:36.990Z,14.19
2023-05-10T20:44:07.045Z,14.29
2023-05-10T20:46:37.120Z,14.35
2023-05-10T20:49:11.693Z,14.06
2023-05-10T20:51:41.782Z,13.99
2023-05-10T20:54:11.725Z,14.00
2023-05-10T20:56:41.808Z,14.04
2023-05-10T20:59:12.011Z,14.02
2023-05-10T21:01:42.409Z,14.00
2023-05-10T21:04:15.156Z,13.99
2023-05-10T21:06:46.077Z,14.10
2023-05-10T21:09:16.754Z,14.03
2023-05-10T21:11:47.162Z,14.10
2023-05-10T21:14:17.125Z,13.94
2023-05-10T21:16:47.120Z,14.13
2023-05-10T21:19:19.918Z,13.91
2023-05-10T21:21:50.210Z,14.08
2023-05-10T21:24:20.176Z,13.97
2023-05-10T21:26:50.108Z,13.95
2023-05-10T21:29:20.004Z,13.90
2023-05-10T21:31:51.267Z,13.82
2023-05-10T21:34:23.904Z,13.83
2023-05-10T21:36:53.977Z,13.80
2023-05-10T21:39:23.994Z,13.73
2023-05-10T21:41:53.982Z,13.71
2023-05-10T21:44:23.850Z,13.62
2023-05-10T21:46:53.852Z,13.57
2023-05-10T21:49:26.458Z,13.54
2023-05-10T21:51:56.559Z,13.49
2023-05-10T21:54:26.497Z,13.71
2023-05-10T21:56:56.572Z,13.69
2023-05-10T21:59:26.648Z,13.52
2023-05-10T22:01:57.318Z,13.48
2023-05-10T22:04:29.850Z,13.58
2023-05-10T22:06:59.829Z,13.31
2023-05-10T22:09:29.773Z,13.29
2023-05-10T22:11:59.782Z,13.36
2023-05-10T22:14:29.666Z,13.32
2023-05-10T22:17:00.138Z,13.34
2023-05-10T22:19:32.833Z,13.31
2023-05-10T22:22:02.793Z,13.21
2023-05-10T22:24:33.432Z,13.30
2023-05-10T22:27:04.942Z,13.28
2023-05-10T22:29:34.895Z,13.14
2023-05-10T22:32:06.507Z,13.18
2023-05-10T22:34:39.059Z,13.25
2023-05-10T22:37:08.928Z,13.15
2023-05-10T22:39:38.835Z,13.12
2023-05-10T22:42:08.770Z,13.17
2023-05-10T22:44:38.768Z,13.08
2023-05-10T22:47:09.373Z,13.02
2023-05-10T22:49:41.932Z,13.04
2023-05-10T22:52:13.770Z,12.96
2023-05-10T22:54:44.441Z,12.97
2023-05-10T22:57:15.260Z,12.95
2023-05-10T22:59:45.606Z,12.98
2023-05-10T23:02:16.941Z,12.86
2023-05-10T23:04:49.583Z,12.85
2023-05-10T23:07:19.763Z,12.92
2023-05-10T23:09:49.710Z,12.83
2023-05-10T23:12:19.754Z,12.74
2023-05-10T23:14:49.641Z,12.73
2023-05-10T23:17:19.623Z,12.75
2023-05-10T23:19:52.130Z,12.71
2023-05-10T23:22:22.079Z,12.76
2023-05-10T23:24:51.981Z,12.73
2023-05-10T23:27:21.990Z,12.74
2023-05-10T23:29:55.798Z,12.73
2023-05-10T23:32:26.073Z,12.73
2023-05-10T23:34:58.657Z,12.83
2023-05-10T23:37:28.628Z,12.65
2023-05-10T23:39:58.599Z,12.61
2023-05-10T23:42:28.566Z,12.73
2023-05-10T23:44:58.528Z,12.76
2023-05-10T23:47:28.511Z,12.73
2023-05-10T23:50:01.222Z,12.69
2023-05-10T23:52:31.270Z,12.63
2023-05-10T23:55:01.218Z,12.57
2023-05-10T23:57:31.202Z,12.55
